Ravenden Springs, AR (72460)

3:37 PM CDT on July 24, 2014 (GMT -0500)
Rural Ravenden Springs (KARRAVEN1) Elev 605 ft | 36.31 °N, 91.20 °W | Change Station

Current weather conditions updated 3 seconds ago

Clear
Clear
78.8 °F
Feels Like 79 °F
N
2.2
Wind Variable Wind from North
Gusts 3.5 mph

Today is forecast to be Much Cooler than yesterday.

Today
High -- | Low -- °F
--% Chance of Precip.
Yesterday
High -- | Low -- °F
Precip. -- in
6:05 AM 8:17 PM
Waning Crescent, 4% visible
Pressure 30.05 in
Visibility 10.0 miles
Clouds Clear
Heat Index 79 °F
Dew Point 49 °F
Humidity 35%
Rainfall 0.00 in
Snow Depth Not available.
UV 9 out of 12
Pollen 5.40 out of 12
Air Quality Not available.
Flu Activity Not available.
METAR KARG 242015Z AUTO 05007KT 10SM CLR 27/15 A3005 RMK AO1

More Conditions Fewer Conditions

Pressure 30.05 in
Visibility 10.0 miles
Clouds Clear
Heat Index 79 °F
Dew Point 49 °F
Humidity 35%
Rainfall 0.00 in
Snow Depth Not available.
UV 9 out of 12
Pollen 5.40 out of 12
Air Quality Not available.
Flu Activity Not available.
METAR KARG 242015Z AUTO 05007KT 10SM CLR 27/15 A3005 RMK AO1

More Conditions Fewer Conditions

10-Day Weather Forecast

Almanac

Astronomy

Jul. 24, 2014 Rise Set
Actual Time 6:05 AM CDT 8:17 PM CDT
Civil Twilight 5:36 AM CDT 8:46 PM CDT
Nautical Twilight 5:00 AM CDT 9:21 PM CDT
Astronomical Twilight 4:22 AM CDT 10:00 PM CDT
Moon 4:12 AM CDT 6:33 PM CDT
Length of Visible Light 15h 09m
Length of Day
14h 11m
Tomorrow will be 1m 31s shorter.
Waning Crescent, 4% of the Moon is Illuminated
Today
Waning Crescent
Jul 26
New
Aug 3
First Quarter
Aug 10
Full
Aug 17
Last Quarter

Today's Extremes

State Highs State Lows

Community

WunderPhotos

Upload Photos

1,737,123 photos uploaded!

Nearby

Snow Depth

Station Depth Elevation
No new snow has been reported.

Earthquake Activity

City Distance Mag. Time & Date
No recent earthquake activity has been reported nearby.
Minimum magnitude displayed is 2.5.

Coastal Water Temperatures

Place Temperature
No Stations Reporting

Nearby Weather Stations

Station Location Temp. Heat Index Dew Point Humidity Wind Precip. Elev Updated Type
Rural Ravenden Springs, Ravenden Springs, AR 78.8 °F 79 °F 49 °F 35% North  at  2.2 mph 0.00 in / hr 605 ft 3:37 PM CDT Rapid Fire

Show More Stations Show Fewer Stations